Address 0x8318fafbc2f579e4fcdccefba4542ec543059b0c 1

 
Txn Hash Method
Block
From
To
Value [Txn Fee]
0x207f9e81a8ccdfb73017c72acec436f31c78f6058d702cd56b0641d05e835927Swap In132437242021-12-06 12:24:4813 mins ago0x8318fafbc2f579e4fcdccefba4542ec543059b0cOUT 0x76f76055cf24e882d23944de4d8809309ea2a9e60 BNB0.00079599
0xbd9457cf9d69291be1eb34e58362b314a909721cb0e4e5f9e292dc3950f00dcdSwap In132435532021-12-06 12:16:1322 mins ago0x8318fafbc2f579e4fcdccefba4542ec543059b0cOUT 0x76f76055cf24e882d23944de4d8809309ea2a9e60 BNB0.00057099
0xa8d4c53f435060ec27cb582327efd7a2430a8463b65d74876e66c44d06efbc21Swap In132434172021-12-06 12:09:1529 mins ago0x8318fafbc2f579e4fcdccefba4542ec543059b0cOUT 0xc3adbf524513863102df6784e1ab5652165c79120 BNB0.00079599
0x368c88bf1b24e3daedb1994e423e0152f1dde83a0dcb3a01911ff8c7068ab869Transfer132433372021-12-06 12:05:0233 mins ago0x216b23720c48fbd1647487c372d855e59c301307 IN 0x8318fafbc2f579e4fcdccefba4542ec543059b0c0.005 BNB0.00042
0xab9c6a67a964f07f7cb9235ee247872a83788060391547d40d33192b3ca013edTransfer132431002021-12-06 11:50:4047 mins ago0x2ff4f7383c46a253190605e58b0302052478d3eb IN 0x8318fafbc2f579e4fcdccefba4542ec543059b0c0.01 BNB0.00021
0xef9c1f36a0f0edbc7a4c928996fd2978aa94b24ee888886257c9662fb6b3ba63Transfer132430722021-12-06 11:49:0849 mins ago0x216b23720c48fbd1647487c372d855e59c301307 IN 0x8318fafbc2f579e4fcdccefba4542ec543059b0c0.005 BNB0.00042
0xa1ec3fc9946df38f478af489ee341532eb9d1ed6dde7fcc355ba7a668a4addf0Swap In132430432021-12-06 11:47:2550 mins ago0x8318fafbc2f579e4fcdccefba4542ec543059b0cOUT 0xc3adbf524513863102df6784e1ab5652165c79120 BNB0.00079581
0xb518c42dea855ada05211bdad16b37535a8e9d46adefb97d5d006074bfed15a7Swap In132429452021-12-06 11:41:2956 mins ago0x8318fafbc2f579e4fcdccefba4542ec543059b0cOUT 0x76f76055cf24e882d23944de4d8809309ea2a9e60 BNB0.00079599
0xd13035581a2871f66d84d34871f7e6f8f4c4484578fead1cba1a50363516ca07Swap In132420462021-12-06 10:54:541 hr 43 mins ago0x8318fafbc2f579e4fcdccefba4542ec543059b0cOUT 0x76f76055cf24e882d23944de4d8809309ea2a9e60 BNB0.00057099
0xf6d10c7cd09d684edd5a0f072ee45407a94e36e5ca863d38fb7059e8849aab3dTransfer132417432021-12-06 10:39:421 hr 58 mins ago0x2f0671d44e54b712eca53e9d465bf588735069cf IN 0x8318fafbc2f579e4fcdccefba4542ec543059b0c0.01 BNB0.000105
0x3c731dc4c95c62a11c78138a93eaa1e417a5c7942f9135c27faa5074ec825229Swap In132407412021-12-06 9:48:482 hrs 49 mins ago0x8318fafbc2f579e4fcdccefba4542ec543059b0cOUT 0xc3adbf524513863102df6784e1ab5652165c79120 BNB0.00079581
0xd765bf02aa9490bab244f32cf0742b39506013448549624b16de16bb740986baSwap In132401122021-12-06 9:16:273 hrs 21 mins ago0x8318fafbc2f579e4fcdccefba4542ec543059b0cOUT 0x76f76055cf24e882d23944de4d8809309ea2a9e60 BNB0.00057099
0x74ede49fe5f3e777f9d22a38a1c3f523b278b29ceb061ffa90598116f0a22746Swap In132379502021-12-06 7:25:145 hrs 13 mins ago0x8318fafbc2f579e4fcdccefba4542ec543059b0cOUT 0x76f76055cf24e882d23944de4d8809309ea2a9e60 BNB0.00079599
0x93b6ce41f079b97d63314dce3af93036037a785dbb58cda773ff6c3f3a0b06a9Swap In132379422021-12-06 7:24:505 hrs 13 mins ago0x8318fafbc2f579e4fcdccefba4542ec543059b0cOUT 0x76f76055cf24e882d23944de4d8809309ea2a9e60 BNB0.00057099
0xe96be6f0bf3bea8114006ac9879c909da84f335c8fcea2faaca44c96621a1f45Swap In132369392021-12-06 6:33:026 hrs 5 mins ago0x8318fafbc2f579e4fcdccefba4542ec543059b0cOUT 0x76f76055cf24e882d23944de4d8809309ea2a9e60 BNB0.00057081
0x0b6bd83b74b3602b3c8d2fd9c0829d1a2440a10b3e50a7333844d4392094c154Swap In132348772021-12-06 4:49:297 hrs 48 mins ago0x8318fafbc2f579e4fcdccefba4542ec543059b0cOUT 0xc3adbf524513863102df6784e1ab5652165c79120 BNB0.00079581
0x2c473d852ad08636f23f7310260a33b0455ff1f43036c108418127fcd3d09d91Swap In132325932021-12-06 2:50:599 hrs 47 mins ago0x8318fafbc2f579e4fcdccefba4542ec543059b0cOUT 0xc3adbf524513863102df6784e1ab5652165c79120 BNB0.00079599
0x724a164dd85858aac41752058a7cfd66874d41b1e6c0b8be7bb9bc929268124aSwap In132320592021-12-06 2:22:5010 hrs 15 mins ago0x8318fafbc2f579e4fcdccefba4542ec543059b0cOUT 0x76f76055cf24e882d23944de4d8809309ea2a9e60 BNB0.00057081
0xc9e87019fe6ecc3f0212347f81d0a30c7016eecaeb5da4fe8f2cd521abe9851cSwap In132315252021-12-06 1:56:0410 hrs 42 mins ago0x8318fafbc2f579e4fcdccefba4542ec543059b0cOUT 0x76f76055cf24e882d23944de4d8809309ea2a9e60 BNB0.00079617
0x9f6a5babaeda5bd1a65d504c6b1c16b4e9a65446e3383e8e61dcf70c58f02f4cSwap In132309072021-12-06 1:25:0311 hrs 13 mins ago0x8318fafbc2f579e4fcdccefba4542ec543059b0cOUT 0xc3adbf524513863102df6784e1ab5652165c79120 BNB0.00079599
0xe2f6b839986b2c93e570d3ec59f088a2533825fc7be4ed5d3dbd82b87984e9f4Transfer132296612021-12-06 0:22:4012 hrs 15 mins ago0x8318fafbc2f579e4fcdccefba4542ec543059b0cOUT0x027849d8b2f19d3ced18e3676cafb72d95fdf80d0.009 BNB0.000315
0x0e9af4d797f3c434ef7e49f93c56b038cc8c6a2cd18ed1616071647f7cf03cf3Swap In132271172021-12-05 22:14:3414 hrs 23 mins ago0x8318fafbc2f579e4fcdccefba4542ec543059b0cOUT 0x76f76055cf24e882d23944de4d8809309ea2a9e60 BNB0.00079599
0xa501170a56e6ed2e54f42cb768a25fe7828de3a0ff73819f186dfae17183c20fTransfer132269442021-12-05 22:05:5514 hrs 32 mins ago0xe60862d8d318fcd2543ab282aab507bb524ecb40 IN 0x8318fafbc2f579e4fcdccefba4542ec543059b0c0.0147 BNB0.00042
0x931114f69997e8cc029a7cbaab6b07c56f39697e1fddafafe39cc4b182b2ef79Swap In132262122021-12-05 21:29:1815 hrs 9 mins ago0x8318fafbc2f579e4fcdccefba4542ec543059b0cOUT 0x76f76055cf24e882d23944de4d8809309ea2a9e60 BNB0.00079617
0x7834ec1fb502060d74d87c39df75cbf5e19958ef8791f16d410640ef7aacdb0eSwap In132258662021-12-05 21:11:5815 hrs 26 mins ago0x8318fafbc2f579e4fcdccefba4542ec543059b0cOUT 0x76f76055cf24e882d23944de4d8809309ea2a9e60 BNB0.00057099
[ Download CSV Export 
Parent Txn Hash Block From To Value
Loading

Contract Name:
0 BNB

Compiler Version
0

Optimization Enabled:
0 BNB

Other Settings:
-NA-
Block Transaction Gas Used Reward
Age Block Fee Address BC Fee Address Voting Power Jailed Incoming
Block Uncle Number Difficulty Gas Used Reward
Loading
Loading
Make sure to use the "Vote Down" button for any spammy posts, and the "Vote Up" for interesting conversations.